createdAt,value
2017-05-10T00:01:35.373Z,7.06
2017-05-10T00:04:04.425Z,6.26
2017-05-10T00:06:33.669Z,6.48
2017-05-10T00:09:02.949Z,6.56
2017-05-10T00:11:31.993Z,7.06
2017-05-10T00:14:01.356Z,7.50
2017-05-10T00:16:30.437Z,7.10
2017-05-10T00:19:00.478Z,6.64
2017-05-10T00:21:29.544Z,7.20
2017-05-10T00:23:59.325Z,5.74
2017-05-10T00:26:28.436Z,6.70
2017-05-10T00:28:57.511Z,6.66
2017-05-10T00:31:26.569Z,6.32
2017-05-10T00:33:55.594Z,6.36
2017-05-10T00:36:24.670Z,7.08
2017-05-10T00:38:53.720Z,7.02
2017-05-10T00:41:23.494Z,6.08
2017-05-10T00:43:52.532Z,7.08
2017-05-10T00:46:22.312Z,7.04
2017-05-10T00:48:51.373Z,7.72
2017-05-10T00:51:20.425Z,6.48
2017-05-10T00:53:50.482Z,6.18
2017-05-10T00:56:19.595Z,6.50
2017-05-10T00:58:48.914Z,7.18
2017-05-10T01:01:17.971Z,7.00
2017-05-10T01:03:47.021Z,7.14
2017-05-10T01:06:16.096Z,7.40
2017-05-10T01:08:45.139Z,6.44
2017-05-10T01:11:14.207Z,5.98
2017-05-10T01:13:43.249Z,7.68
2017-05-10T01:16:12.411Z,6.22
2017-05-10T01:18:42.233Z,6.98
2017-05-10T01:21:12.030Z,7.20
2017-05-10T01:23:41.725Z,7.30
2017-05-10T01:26:10.789Z,7.58
2017-05-10T01:28:39.833Z,7.24
2017-05-10T01:31:09.625Z,8.06
2017-05-10T01:33:38.673Z,7.48
2017-05-10T01:36:07.714Z,6.80
2017-05-10T01:38:37.095Z,7.70
2017-05-10T01:41:06.141Z,6.52
2017-05-10T01:43:35.925Z,6.40
2017-05-10T01:46:04.981Z,6.78
2017-05-10T01:48:34.037Z,6.96
2017-05-10T01:51:03.846Z,7.40
2017-05-10T01:53:33.695Z,7.36
2017-05-10T01:56:02.738Z,7.20
2017-05-10T01:58:31.797Z,7.32
2017-05-10T02:01:00.964Z,7.14
2017-05-10T02:03:30.016Z,7.60
2017-05-10T02:05:59.211Z,7.20
2017-05-10T02:08:28.243Z,7.08
2017-05-10T02:10:58.294Z,7.98
2017-05-10T02:13:27.334Z,7.60
2017-05-10T02:15:56.477Z,6.78
2017-05-10T02:18:25.533Z,7.22
2017-05-10T02:20:54.608Z,7.58
2017-05-10T02:23:23.662Z,7.08
2017-05-10T02:25:52.713Z,7.62
2017-05-10T02:28:21.805Z,7.64
2017-05-10T02:30:51.043Z,7.12
2017-05-10T02:33:20.085Z,7.10
2017-05-10T02:35:49.548Z,6.42
2017-05-10T02:38:18.617Z,8.08
2017-05-10T02:40:48.449Z,7.98
2017-05-10T02:43:17.489Z,7.58
2017-05-10T02:45:46.569Z,7.60
2017-05-10T02:48:15.618Z,8.58
2017-05-10T02:50:45.412Z,7.36
2017-05-10T02:53:14.745Z,7.82
2017-05-10T02:55:43.793Z,8.62
2017-05-10T02:58:12.893Z,7.08
2017-05-10T03:00:41.944Z,8.36
2017-05-10T03:03:10.991Z,7.68
2017-05-10T03:05:40.044Z,7.36
2017-05-10T03:08:09.162Z,7.58
2017-05-10T03:10:38.563Z,8.78
2017-05-10T03:13:07.926Z,8.08
2017-05-10T03:15:36.968Z,8.68
2017-05-10T03:18:06.047Z,7.48
2017-05-10T03:20:35.085Z,8.00
2017-05-10T03:23:04.882Z,8.18
2017-05-10T03:25:33.960Z,7.64
2017-05-10T03:28:03.043Z,7.48
2017-05-10T03:30:32.089Z,8.40
2017-05-10T03:33:01.893Z,8.74
2017-05-10T03:35:31.721Z,7.80
2017-05-10T03:38:01.552Z,7.96
2017-05-10T03:40:30.833Z,7.46
2017-05-10T03:42:59.894Z,8.20
2017-05-10T03:45:28.942Z,8.16
2017-05-10T03:47:58.013Z,9.82
2017-05-10T03:50:27.815Z,7.92
2017-05-10T03:52:57.632Z,7.68
2017-05-10T03:55:27.418Z,7.60
2017-05-10T03:57:56.494Z,7.56
2017-05-10T04:00:25.570Z,8.80
2017-05-10T04:02:54.640Z,7.92
2017-05-10T04:05:24.421Z,8.76
2017-05-10T04:07:53.491Z,7.64
2017-05-10T04:10:22.565Z,9.70
2017-05-10T04:12:51.612Z,9.02
2017-05-10T04:15:20.693Z,8.12
2017-05-10T04:17:49.805Z,8.26
2017-05-10T04:20:18.872Z,8.36
2017-05-10T04:22:48.197Z,10.08
2017-05-10T04:25:17.258Z,8.98
2017-05-10T04:27:46.285Z,9.60
2017-05-10T04:30:15.366Z,8.82
2017-05-10T04:32:44.720Z,8.36
2017-05-10T04:35:13.776Z,8.10
2017-05-10T04:37:42.827Z,9.36
2017-05-10T04:40:12.118Z,8.32
2017-05-10T04:42:41.194Z,9.10
2017-05-10T04:45:11.138Z,8.46
2017-05-10T04:47:40.202Z,8.10
2017-05-10T04:50:10.009Z,8.04
2017-05-10T04:52:39.828Z,8.00
2017-05-10T04:55:09.673Z,9.24
2017-05-10T04:57:38.716Z,7.70
2017-05-10T05:00:07.774Z,7.52
2017-05-10T05:02:36.905Z,8.58
2017-05-10T05:05:05.976Z,7.10
2017-05-10T05:07:35.014Z,9.00
2017-05-10T05:10:04.844Z,7.34
2017-05-10T05:12:33.955Z,7.46
2017-05-10T05:15:03.014Z,8.70
2017-05-10T05:17:32.841Z,8.18
2017-05-10T05:20:02.149Z,8.18
2017-05-10T05:22:31.210Z,8.34
2017-05-10T05:25:00.281Z,7.82
2017-05-10T05:27:29.340Z,7.80
2017-05-10T05:29:58.394Z,9.00
2017-05-10T05:32:27.537Z,9.30
2017-05-10T05:34:56.612Z,7.58
2017-05-10T05:37:26.464Z,8.08
2017-05-10T05:39:55.517Z,7.74
2017-05-10T05:42:25.304Z,8.00
2017-05-10T05:44:54.439Z,9.12
2017-05-10T05:47:23.524Z,7.90
2017-05-10T05:49:53.309Z,7.74
2017-05-10T05:52:22.383Z,9.54
2017-05-10T05:54:51.432Z,8.74
2017-05-10T05:57:20.877Z,9.56
2017-05-10T05:59:49.916Z,8.46
2017-05-10T06:02:18.973Z,8.38
2017-05-10T06:04:48.031Z,9.80
2017-05-10T06:07:17.109Z,8.42
2017-05-10T06:09:46.162Z,9.50
2017-05-10T06:12:15.238Z,8.50
2017-05-10T06:14:44.285Z,8.52
2017-05-10T06:17:13.334Z,8.30
2017-05-10T06:19:42.381Z,7.90
2017-05-10T06:22:11.433Z,7.92
2017-05-10T06:24:40.488Z,8.06
2017-05-10T06:27:09.536Z,9.88
2017-05-10T06:29:38.576Z,7.62
2017-05-10T06:32:07.647Z,8.52
2017-05-10T06:34:36.685Z,8.10
2017-05-10T06:37:05.928Z,9.32
2017-05-10T06:39:34.961Z,8.02
2017-05-10T06:42:04.020Z,8.12
2017-05-10T06:44:33.105Z,9.22
2017-05-10T06:47:02.140Z,7.54
2017-05-10T06:49:31.238Z,8.52
2017-05-10T06:52:00.325Z,8.62
2017-05-10T06:54:29.363Z,8.56
2017-05-10T06:56:58.401Z,9.68
2017-05-10T06:59:28.093Z,9.34
2017-05-10T07:01:57.281Z,7.36
2017-05-10T07:04:26.338Z,7.38
2017-05-10T07:06:55.404Z,9.06
2017-05-10T07:09:24.482Z,8.26
2017-05-10T07:11:53.553Z,8.98
2017-05-10T07:14:22.645Z,8.20
2017-05-10T07:16:51.921Z,8.28
2017-05-10T07:19:20.958Z,7.68
2017-05-10T07:21:50.149Z,9.28
2017-05-10T07:24:19.454Z,8.30
2017-05-10T07:26:48.681Z,9.82
2017-05-10T07:29:17.760Z,8.76
2017-05-10T07:31:46.824Z,7.98
2017-05-10T07:34:16.122Z,8.40
2017-05-10T07:36:45.165Z,8.26
2017-05-10T07:39:14.241Z,8.36
2017-05-10T07:41:43.564Z,8.04
2017-05-10T07:44:12.614Z,8.72
2017-05-10T07:46:41.652Z,9.50
2017-05-10T07:49:10.713Z,8.10
2017-05-10T07:51:39.818Z,9.88
2017-05-10T07:54:08.871Z,8.36
2017-05-10T07:56:37.927Z,8.48
2017-05-10T07:59:07.083Z,8.96
2017-05-10T08:01:36.224Z,10.08
2017-05-10T08:04:05.457Z,8.24
2017-05-10T08:06:34.716Z,9.46
2017-05-10T08:09:03.755Z,7.42
2017-05-10T08:11:32.813Z,9.48
2017-05-10T08:14:01.885Z,9.62
2017-05-10T08:16:30.934Z,8.52
2017-05-10T08:18:59.971Z,9.18
2017-05-10T08:21:29.071Z,9.22
2017-05-10T08:23:58.353Z,9.40
2017-05-10T08:26:27.404Z,10.24
2017-05-10T08:28:56.692Z,8.98
2017-05-10T08:31:25.743Z,10.28
2017-05-10T08:33:54.814Z,9.64
2017-05-10T08:36:23.858Z,9.48
2017-05-10T08:38:52.897Z,9.92
2017-05-10T08:41:21.943Z,10.66
2017-05-10T08:43:50.994Z,9.84
2017-05-10T08:46:20.053Z,10.84
2017-05-10T08:48:49.117Z,10.08
2017-05-10T08:51:18.186Z,10.04
2017-05-10T08:53:47.266Z,10.86
2017-05-10T08:56:16.313Z,11.14
2017-05-10T08:58:45.630Z,11.24
2017-05-10T09:01:14.713Z,10.88
2017-05-10T09:03:43.768Z,9.82
2017-05-10T09:06:12.840Z,12.16
2017-05-10T09:08:41.916Z,10.40
2017-05-10T09:11:11.166Z,11.40
2017-05-10T09:13:40.255Z,11.24
2017-05-10T09:16:09.305Z,11.54
2017-05-10T09:18:38.361Z,11.62
2017-05-10T09:21:07.434Z,12.20
2017-05-10T09:23:36.513Z,12.36
2017-05-10T09:26:05.573Z,12.30
2017-05-10T09:28:34.613Z,12.10
2017-05-10T09:31:03.668Z,10.84
2017-05-10T09:33:32.753Z,12.48
2017-05-10T09:36:01.821Z,11.94
2017-05-10T09:38:30.864Z,11.70
2017-05-10T09:40:59.920Z,11.38
2017-05-10T09:43:28.980Z,11.84
2017-05-10T09:45:58.072Z,12.20
2017-05-10T09:48:27.125Z,12.46
2017-05-10T09:50:56.173Z,11.36
2017-05-10T09:53:25.244Z,12.60
2017-05-10T09:55:54.517Z,12.92
2017-05-10T09:58:23.808Z,12.98
2017-05-10T10:00:52.869Z,11.72
2017-05-10T10:03:22.141Z,12.62
2017-05-10T10:05:51.200Z,12.94
2017-05-10T10:08:20.245Z,13.74
2017-05-10T10:10:49.793Z,12.40
2017-05-10T10:13:19.010Z,13.78
2017-05-10T10:15:48.101Z,12.94
2017-05-10T10:18:17.172Z,13.60
2017-05-10T10:20:46.224Z,13.02
2017-05-10T10:23:15.265Z,14.22
2017-05-10T10:25:44.334Z,13.24
2017-05-10T10:28:13.384Z,13.02
2017-05-10T10:30:42.421Z,12.32
2017-05-10T10:33:11.503Z,13.56
2017-05-10T10:35:40.556Z,12.42
2017-05-10T10:38:09.597Z,13.36
2017-05-10T10:40:38.654Z,13.08
2017-05-10T10:43:07.729Z,13.66
2017-05-10T10:45:36.773Z,14.56
2017-05-10T10:48:05.845Z,12.30
2017-05-10T10:50:34.932Z,11.90
2017-05-10T10:53:04.005Z,12.34
2017-05-10T10:55:33.057Z,12.24
2017-05-10T10:58:02.121Z,12.78
2017-05-10T11:00:31.221Z,12.80
2017-05-10T11:03:00.273Z,12.52
2017-05-10T11:05:29.330Z,11.08
2017-05-10T11:07:58.398Z,13.16
2017-05-10T11:10:27.446Z,12.90
2017-05-10T11:12:56.485Z,14.08
2017-05-10T11:15:25.524Z,14.42
2017-05-10T11:17:54.577Z,13.78
2017-05-10T11:20:23.630Z,13.70
2017-05-10T11:22:52.697Z,12.66
2017-05-10T11:25:21.733Z,12.46
2017-05-10T11:27:50.778Z,11.30
2017-05-10T11:30:19.882Z,13.64
2017-05-10T11:32:49.023Z,13.88
2017-05-10T11:35:18.113Z,13.34
2017-05-10T11:37:47.263Z,13.72
2017-05-10T11:40:16.564Z,16.00
2017-05-10T11:42:45.620Z,14.82
2017-05-10T11:45:14.679Z,15.12
2017-05-10T11:47:43.733Z,15.20
2017-05-10T11:50:12.780Z,15.06
2017-05-10T11:52:41.845Z,14.30
2017-05-10T11:55:10.933Z,15.10
2017-05-10T11:57:39.992Z,15.12
2017-05-10T12:00:09.045Z,15.60
2017-05-10T12:02:38.113Z,14.44
2017-05-10T12:05:07.159Z,13.64
2017-05-10T12:07:36.231Z,14.72
2017-05-10T12:10:05.342Z,14.00
2017-05-10T12:12:34.462Z,15.08
2017-05-10T12:15:03.585Z,14.72
2017-05-10T12:17:32.641Z,16.38
2017-05-10T12:20:01.725Z,16.40
2017-05-10T12:22:30.744Z,15.46
2017-05-10T12:24:59.788Z,14.98
2017-05-10T12:27:28.834Z,15.10
2017-05-10T12:29:58.133Z,14.04
2017-05-10T12:32:27.188Z,15.46
2017-05-10T12:34:56.262Z,15.58
2017-05-10T12:37:25.324Z,14.06
2017-05-10T12:39:54.373Z,14.66
2017-05-10T12:42:23.633Z,14.34
2017-05-10T12:44:52.683Z,14.32
2017-05-10T12:47:21.757Z,13.52
2017-05-10T12:49:50.859Z,11.28
2017-05-10T12:52:19.935Z,12.68
2017-05-10T12:54:48.992Z,13.90
2017-05-10T12:57:18.276Z,14.50
2017-05-10T12:59:47.325Z,13.62
2017-05-10T13:02:16.364Z,15.08
2017-05-10T13:04:45.412Z,14.72
2017-05-10T13:07:14.470Z,15.08
2017-05-10T13:09:43.545Z,14.22
2017-05-10T13:12:12.902Z,15.08
2017-05-10T13:14:42.849Z,13.48
2017-05-10T13:17:11.912Z,14.78
2017-05-10T13:19:40.985Z,13.80
2017-05-10T13:22:10.028Z,15.12
2017-05-10T13:24:39.066Z,13.84
2017-05-10T13:27:08.161Z,14.98
2017-05-10T13:29:37.233Z,14.46
2017-05-10T13:32:06.313Z,15.06
2017-05-10T13:34:35.348Z,13.92
2017-05-10T13:37:04.413Z,13.80
2017-05-10T13:39:33.486Z,15.16
2017-05-10T13:42:02.546Z,15.00
2017-05-10T13:44:31.611Z,15.18
2017-05-10T13:47:00.661Z,15.38
2017-05-10T13:49:29.739Z,14.60
2017-05-10T13:51:58.806Z,16.22
2017-05-10T13:54:27.868Z,15.40
2017-05-10T13:56:57.724Z,14.62
2017-05-10T13:59:27.018Z,15.48
2017-05-10T14:01:56.129Z,15.08
2017-05-10T14:04:25.178Z,15.08
2017-05-10T14:06:54.235Z,13.70
2017-05-10T14:09:23.289Z,14.14
2017-05-10T14:11:52.750Z,15.24
2017-05-10T14:14:21.791Z,15.68
2017-05-10T14:16:50.922Z,16.50
2017-05-10T14:19:20.055Z,16.48
2017-05-10T14:21:49.405Z,16.26
2017-05-10T14:24:18.477Z,15.40
2017-05-10T14:26:47.573Z,15.60
2017-05-10T14:29:16.659Z,15.30
2017-05-10T14:31:45.734Z,15.92
2017-05-10T14:34:14.831Z,16.56
2017-05-10T14:36:43.881Z,15.58
2017-05-10T14:39:12.932Z,13.64
2017-05-10T14:41:41.989Z,15.92
2017-05-10T14:44:11.033Z,16.02
2017-05-10T14:46:40.092Z,14.74
2017-05-10T14:49:09.168Z,16.58
2017-05-10T14:51:38.209Z,15.12
2017-05-10T14:54:07.274Z,15.32
2017-05-10T14:56:36.325Z,16.02
2017-05-10T14:59:05.402Z,17.98
2017-05-10T15:01:34.512Z,17.18
2017-05-10T15:04:03.556Z,16.60
2017-05-10T15:06:32.632Z,15.44
2017-05-10T15:09:01.750Z,16.52
2017-05-10T15:11:31.060Z,15.80
2017-05-10T15:14:00.140Z,16.16
2017-05-10T15:16:29.180Z,16.04
2017-05-10T15:18:58.304Z,15.60
2017-05-10T15:21:27.369Z,17.84
2017-05-10T15:23:56.452Z,16.44
2017-05-10T15:26:25.501Z,16.74
2017-05-10T15:28:54.565Z,16.20
2017-05-10T15:31:23.629Z,17.46
2017-05-10T15:33:52.834Z,16.66
2017-05-10T15:36:21.893Z,15.32
2017-05-10T15:38:50.937Z,17.32
2017-05-10T15:41:19.987Z,15.80
2017-05-10T15:43:49.042Z,16.44
2017-05-10T15:46:18.101Z,16.46
2017-05-10T15:48:47.203Z,16.18
2017-05-10T15:51:16.249Z,16.88
2017-05-10T15:53:45.314Z,14.48
2017-05-10T15:56:14.394Z,16.66
2017-05-10T15:58:43.449Z,16.88
2017-05-10T16:01:12.569Z,16.10
2017-05-10T16:03:41.635Z,15.24
2017-05-10T16:06:10.695Z,17.16
2017-05-10T16:08:39.733Z,15.32
2017-05-10T16:11:08.794Z,15.30
2017-05-10T16:13:38.833Z,15.94
2017-05-10T16:16:08.108Z,16.26
2017-05-10T16:18:37.173Z,15.92
2017-05-10T16:21:06.223Z,16.16
2017-05-10T16:23:35.265Z,18.08
2017-05-10T16:26:04.394Z,15.18
2017-05-10T16:28:33.519Z,16.10
2017-05-10T16:31:02.589Z,15.88
2017-05-10T16:33:32.100Z,15.92
2017-05-10T16:36:01.161Z,16.06
2017-05-10T16:38:30.225Z,16.46
2017-05-10T16:40:59.283Z,16.70
2017-05-10T16:43:29.241Z,15.76
2017-05-10T16:45:59.093Z,16.36
2017-05-10T16:48:28.157Z,16.68
2017-05-10T16:50:57.452Z,16.36
2017-05-10T16:53:26.558Z,16.92
2017-05-10T16:55:55.608Z,16.16
2017-05-10T16:58:24.648Z,16.88
2017-05-10T17:00:53.745Z,16.32
2017-05-10T17:03:22.819Z,16.92
2017-05-10T17:05:52.352Z,15.60
2017-05-10T17:08:21.410Z,16.32
2017-05-10T17:10:50.919Z,16.94
2017-05-10T17:13:19.996Z,17.82
2017-05-10T17:15:49.833Z,16.84
2017-05-10T17:18:18.874Z,16.18
2017-05-10T17:20:47.956Z,15.34
2017-05-10T17:23:17.036Z,17.28
2017-05-10T17:25:46.077Z,18.42
2017-05-10T17:28:15.895Z,16.96
2017-05-10T17:30:45.743Z,18.28
2017-05-10T17:33:14.940Z,15.26
2017-05-10T17:35:44.049Z,15.90
2017-05-10T17:38:13.154Z,16.10
2017-05-10T17:40:42.228Z,16.22
2017-05-10T17:43:11.283Z,16.82
2017-05-10T17:45:40.338Z,17.76
2017-05-10T17:48:09.425Z,16.40
2017-05-10T17:50:38.545Z,16.62
2017-05-10T17:53:07.625Z,16.90
2017-05-10T17:55:36.698Z,17.06
2017-05-10T17:58:05.772Z,16.08
2017-05-10T18:00:34.862Z,17.16
2017-05-10T18:03:03.935Z,16.42
2017-05-10T18:05:32.994Z,16.42
2017-05-10T18:08:02.060Z,16.46
2017-05-10T18:10:31.366Z,15.58
2017-05-10T18:13:00.432Z,16.32
2017-05-10T18:15:29.706Z,15.82
2017-05-10T18:17:58.755Z,17.80
2017-05-10T18:20:27.865Z,17.86
2017-05-10T18:22:56.953Z,16.80
2017-05-10T18:25:26.252Z,17.22
2017-05-10T18:27:55.327Z,16.44
2017-05-10T18:30:26.430Z,16.32
2017-05-10T18:32:58.296Z,15.08
2017-05-10T18:35:27.373Z,15.90
2017-05-10T18:37:56.453Z,14.94
2017-05-10T18:40:25.521Z,15.70
2017-05-10T18:42:54.840Z,14.92
2017-05-10T18:45:24.084Z,14.92
2017-05-10T18:47:53.929Z,15.76
2017-05-10T18:50:23.716Z,15.04
2017-05-10T18:52:52.795Z,15.60
2017-05-10T18:55:21.848Z,14.52
2017-05-10T18:57:51.598Z,13.82
2017-05-10T19:00:20.641Z,15.54
2017-05-10T19:02:49.800Z,14.96
2017-05-10T19:05:18.870Z,12.54
2017-05-10T19:07:47.919Z,14.38
2017-05-10T19:10:18.546Z,15.08
2017-05-10T19:12:49.345Z,14.22
2017-05-10T19:15:18.658Z,15.22
2017-05-10T19:17:47.746Z,14.56
2017-05-10T19:20:17.133Z,15.14
2017-05-10T19:22:46.185Z,15.90
2017-05-10T19:25:15.996Z,15.46
2017-05-10T19:27:46.173Z,14.72
2017-05-10T19:30:15.245Z,14.66
2017-05-10T19:32:44.289Z,14.50
2017-05-10T19:35:13.366Z,15.12
2017-05-10T19:37:42.439Z,15.16
2017-05-10T19:40:11.813Z,14.24
2017-05-10T19:42:41.678Z,15.74
2017-05-10T19:45:10.777Z,15.24
2017-05-10T19:47:39.849Z,15.86
2017-05-10T19:50:09.052Z,15.06
2017-05-10T19:52:38.121Z,16.02
2017-05-10T19:55:07.171Z,15.88
2017-05-10T19:57:36.251Z,14.62
2017-05-10T20:00:05.371Z,13.74
2017-05-10T20:02:35.212Z,15.42
2017-05-10T20:05:04.613Z,13.78
2017-05-10T20:07:34.563Z,14.44
2017-05-10T20:10:03.662Z,15.60
2017-05-10T20:12:33.009Z,16.34
2017-05-10T20:15:02.836Z,14.24
2017-05-10T20:17:31.914Z,15.00
2017-05-10T20:20:01.990Z,13.88
2017-05-10T20:22:31.110Z,12.94
2017-05-10T20:25:00.313Z,15.56
2017-05-10T20:27:29.682Z,13.82
2017-05-10T20:29:58.767Z,14.72
2017-05-10T20:32:27.897Z,14.48
2017-05-10T20:34:56.953Z,14.32
2017-05-10T20:37:26.041Z,15.20
2017-05-10T20:39:55.121Z,13.36
2017-05-10T20:42:24.220Z,13.58
2017-05-10T20:44:53.653Z,15.08
2017-05-10T20:47:22.695Z,14.60
2017-05-10T20:49:53.233Z,14.00
2017-05-10T20:52:23.038Z,15.02
2017-05-10T20:54:53.699Z,14.62
2017-05-10T20:57:22.798Z,13.56
2017-05-10T20:59:51.862Z,15.90
2017-05-10T21:02:21.654Z,14.70
2017-05-10T21:04:50.743Z,14.70
2017-05-10T21:07:20.747Z,14.02
2017-05-10T21:09:49.830Z,14.06
2017-05-10T21:12:18.888Z,14.02
2017-05-10T21:14:48.780Z,14.52
2017-05-10T21:17:17.860Z,14.54
2017-05-10T21:19:46.984Z,15.50
2017-05-10T21:22:16.800Z,16.50
2017-05-10T21:24:46.942Z,16.76
2017-05-10T21:27:16.008Z,17.64
2017-05-10T21:29:46.066Z,18.08
2017-05-10T21:32:16.060Z,17.46
2017-05-10T21:34:45.130Z,18.60
2017-05-10T21:37:15.132Z,17.98
2017-05-10T21:39:44.205Z,15.80
2017-05-10T21:42:13.300Z,17.42
2017-05-10T21:44:42.388Z,15.44
2017-05-10T21:47:11.434Z,16.28
2017-05-10T21:49:41.244Z,16.74
2017-05-10T21:52:11.061Z,16.64
2017-05-10T21:54:40.857Z,17.04
2017-05-10T21:57:09.914Z,17.26
2017-05-10T21:59:38.976Z,15.58
2017-05-10T22:02:08.801Z,16.02
2017-05-10T22:04:37.861Z,14.90
2017-05-10T22:07:07.209Z,15.34
2017-05-10T22:09:36.274Z,14.66
2017-05-10T22:12:06.222Z,13.90
2017-05-10T22:14:35.477Z,13.42
2017-05-10T22:17:04.557Z,15.40
2017-05-10T22:19:33.916Z,14.44
2017-05-10T22:22:02.975Z,14.38
2017-05-10T22:24:32.774Z,13.82
2017-05-10T22:27:02.611Z,13.62
2017-05-10T22:29:33.140Z,13.48
2017-05-10T22:32:02.932Z,14.60
2017-05-10T22:34:31.993Z,14.92
2017-05-10T22:37:01.256Z,13.36
2017-05-10T22:39:30.301Z,14.60
2017-05-10T22:41:59.333Z,14.16
2017-05-10T22:44:30.068Z,13.76
2017-05-10T22:46:59.910Z,13.90
2017-05-10T22:49:28.971Z,13.94
2017-05-10T22:51:58.756Z,14.98
2017-05-10T22:54:27.825Z,13.74
2017-05-10T22:56:56.861Z,14.78
2017-05-10T22:59:25.910Z,14.60
2017-05-10T23:01:54.986Z,15.30
2017-05-10T23:04:24.603Z,14.72
2017-05-10T23:06:54.552Z,14.36
2017-05-10T23:09:23.621Z,13.90
2017-05-10T23:11:52.666Z,14.24
2017-05-10T23:14:22.475Z,14.80
2017-05-10T23:16:52.088Z,15.46
2017-05-10T23:19:21.112Z,15.28
2017-05-10T23:21:51.061Z,14.76
2017-05-10T23:24:20.103Z,16.06
2017-05-10T23:26:50.269Z,15.76
2017-05-10T23:29:19.318Z,15.52
2017-05-10T23:31:49.498Z,16.48
2017-05-10T23:34:18.536Z,16.32
2017-05-10T23:36:47.587Z,15.58
2017-05-10T23:39:17.428Z,17.84
2017-05-10T23:41:47.347Z,15.56
2017-05-10T23:44:16.444Z,16.38
2017-05-10T23:46:45.483Z,16.12
2017-05-10T23:49:14.547Z,15.68
2017-05-10T23:51:43.610Z,16.08
2017-05-10T23:54:12.653Z,16.90
2017-05-10T23:56:41.727Z,16.34
2017-05-10T23:59:10.800Z,16.32
